Time;durP1;ratioP1;P1;durP2;ratioP2;P2;SDS_P1;SDS_P2;PMS_P1;PMS_P2;Temp;Humidity;BMP_temperature;BMP_pressure;BME280_temperature;BME280_humidity;BME280_pressure;Samples;Min_cycle;Max_cycle;Signal;HPM_P1;HPM_P2
2023/09/06 00:00:43;;;;;;;;;10.00;10.00;;;;;;;;4790907;29;8823;-92
2023/09/06 00:03:08;;;;;;;;;28.00;28.00;;;;;;;;4781602;29;9749;-92
2023/09/06 00:14:42;;;;;;;;;60.25;48.50;;;;;;;;4788629;29;10814;-92
2023/09/06 00:17:08;;;;;;;;;55.50;46.00;;;;;;;;4787597;29;10511;-92
2023/09/06 00:19:34;;;;;;;;;62.25;49.00;;;;;;;;4785382;29;8832;-92
2023/09/06 00:21:59;;;;;;;;;52.50;43.50;;;;;;;;4782688;29;8886;-92
2023/09/06 00:24:24;;;;;;;;;38.67;34.00;;;;;;;;4790708;29;8876;-92
2023/09/06 00:26:49;;;;;;;;;22.00;22.00;;;;;;;;4785586;29;8860;-92
2023/09/06 00:29:15;;;;;;;;;25.33;22.00;;;;;;;;4774335;30;8836;-92
2023/09/06 00:31:40;;;;;;;;;23.00;21.33;;;;;;;;4778715;29;8958;-92
2023/09/06 00:34:05;;;;;;;;;16.33;15.33;;;;;;;;4778696;29;8836;-92
2023/09/06 00:36:32;;;;;;;;;14.33;14.00;;;;;;;;4774477;30;8887;-91
2023/09/06 00:38:58;;;;;;;;;9.75;9.75;;;;;;;;4797291;29;8992;-92
2023/09/06 00:41:23;;;;;;;;;8.67;8.67;;;;;;;;4790992;29;8940;-92
2023/09/06 00:43:49;;;;;;;;;7.00;7.00;;;;;;;;4774093;29;8949;-92
2023/09/06 00:46:15;;;;;;;;;6.67;6.67;;;;;;;;4774337;30;8937;-92
2023/09/06 00:48:40;;;;;;;;;9.67;8.67;;;;;;;;4774021;29;8844;-92
2023/09/06 00:51:07;;;;;;;;;9.00;9.00;;;;;;;;4774237;30;11602;-92
2023/09/06 00:53:32;;;;;;;;;7.50;7.50;;;;;;;;4787311;29;8818;-92
2023/09/06 00:55:59;;;;;;;;;9.00;9.00;;;;;;;;4791407;29;9577;-92
2023/09/06 00:58:26;;;;;;;;;11.75;11.75;;;;;;;;4795043;29;8855;-92
2023/09/06 01:00:51;;;;;;;;;8.50;8.50;;;;;;;;4772766;30;8848;-92
2023/09/06 01:03:17;;;;;;;;;9.00;9.00;;;;;;;;4773539;29;8897;-92
2023/09/06 01:06:09;;;;;;;;;11.00;11.00;;;;;;;;4773450;30;8864;-92
2023/09/06 01:08:37;;;;;;;;;10.50;10.50;;;;;;;;4761299;29;8926;-92
2023/09/06 01:11:21;;;;;;;;;9.00;9.00;;;;;;;;4791464;29;8822;-92
2023/09/06 01:13:56;;;;;;;;;8.50;8.50;;;;;;;;4782647;29;8830;-92
2023/09/06 01:16:34;;;;;;;;;8.75;8.75;;;;;;;;4785430;29;8972;-92
2023/09/06 01:19:00;;;;;;;;;10.00;10.00;;;;;;;;4778674;29;8859;-92
2023/09/06 01:21:27;;;;;;;;;10.50;10.50;;;;;;;;4781692;29;8834;-92
2023/09/06 01:23:53;;;;;;;;;6.75;6.75;;;;;;;;4790508;29;8846;-91
2023/09/06 01:26:19;;;;;;;;;11.00;11.00;;;;;;;;4777888;29;8846;-92
2023/09/06 01:28:44;;;;;;;;;11.67;11.67;;;;;;;;4772063;30;8872;-92
2023/09/06 01:31:09;;;;;;;;;11.67;11.67;;;;;;;;4785170;29;8934;-92
2023/09/06 01:33:34;;;;;;;;;11.33;11.33;;;;;;;;4791409;29;8877;-92
2023/09/06 01:36:00;;;;;;;;;10.67;10.67;;;;;;;;4790817;29;8849;-92
2023/09/06 01:38:25;;;;;;;;;8.67;8.67;;;;;;;;4791366;29;8888;-92
2023/09/06 01:40:51;;;;;;;;;8.67;8.67;;;;;;;;4791141;29;9594;-92
2023/09/06 01:43:17;;;;;;;;;11.67;11.67;;;;;;;;4791096;29;8858;-92
2023/09/06 01:45:43;;;;;;;;;10.67;10.67;;;;;;;;4790933;29;8864;-92
2023/09/06 01:48:08;;;;;;;;;8.50;8.50;;;;;;;;4791089;29;8923;-92
2023/09/06 01:50:34;;;;;;;;;9.33;9.33;;;;;;;;4791545;29;8842;-92
2023/09/06 01:52:59;;;;;;;;;9.00;9.00;;;;;;;;4791207;29;8841;-92
2023/09/06 01:55:24;;;;;;;;;9.67;9.67;;;;;;;;4789357;29;8818;-92
2023/09/06 01:57:49;;;;;;;;;8.00;8.00;;;;;;;;4794346;29;8982;-91
2023/09/06 02:00:27;;;;;;;;;8.67;8.67;;;;;;;;4773368;30;8852;-92
2023/09/06 02:02:53;;;;;;;;;6.75;6.75;;;;;;;;4773145;30;8854;-92
2023/09/06 02:05:19;;;;;;;;;8.50;8.50;;;;;;;;4776909;29;8812;-92
2023/09/06 02:07:44;;;;;;;;;5.00;5.00;;;;;;;;4771722;30;8848;-92
2023/09/06 02:10:10;;;;;;;;;8.33;8.33;;;;;;;;4780433;29;8850;-92
2023/09/06 02:12:35;;;;;;;;;6.00;6.00;;;;;;;;4778995;29;8885;-92
2023/09/06 02:15:01;;;;;;;;;10.00;10.00;;;;;;;;4783813;29;8860;-92
2023/09/06 02:17:29;;;;;;;;;8.67;8.67;;;;;;;;4789604;29;8840;-91
2023/09/06 02:19:54;;;;;;;;;7.25;7.25;;;;;;;;4782052;29;8821;-92
2023/09/06 02:22:19;;;;;;;;;7.67;7.67;;;;;;;;4787473;29;8830;-91
2023/09/06 02:24:45;;;;;;;;;9.00;9.00;;;;;;;;4782005;29;8816;-92
2023/09/06 02:27:12;;;;;;;;;7.00;7.00;;;;;;;;4788903;29;8939;-92
2023/09/06 02:29:37;;;;;;;;;6.00;6.00;;;;;;;;4789617;29;9863;-92
2023/09/06 02:32:03;;;;;;;;;4.67;4.67;;;;;;;;4790784;29;8841;-92
2023/09/06 02:34:28;;;;;;;;;6.33;6.33;;;;;;;;4789452;29;8898;-92
2023/09/06 02:36:53;;;;;;;;;6.33;6.33;;;;;;;;4775830;29;8859;-92
2023/09/06 02:39:19;;;;;;;;;5.00;5.00;;;;;;;;4782082;29;8846;-92
2023/09/06 02:41:46;;;;;;;;;6.67;5.00;;;;;;;;4783670;29;8941;-92
2023/09/06 02:44:12;;;;;;;;;7.00;7.00;;;;;;;;4772889;30;8824;-92
2023/09/06 02:46:38;;;;;;;;;1.50;1.50;;;;;;;;4771209;29;8852;-92
2023/09/06 02:49:12;;;;;;;;;5.00;5.00;;;;;;;;4778633;29;8905;-92
2023/09/06 02:51:43;;;;;;;;;5.50;5.50;;;;;;;;4787517;29;8880;-92
2023/09/06 02:54:09;;;;;;;;;4.00;4.00;;;;;;;;4789753;29;8911;-92
2023/09/06 02:56:37;;;;;;;;;5.00;5.00;;;;;;;;4786152;29;8849;-91
2023/09/06 02:59:03;;;;;;;;;6.25;6.25;;;;;;;;4788989;29;8909;-91
2023/09/06 03:01:30;;;;;;;;;5.00;5.00;;;;;;;;4790323;29;8830;-92
2023/09/06 03:03:56;;;;;;;;;3.75;3.75;;;;;;;;4789797;29;8837;-91
2023/09/06 03:06:32;;;;;;;;;5.00;5.00;;;;;;;;4638336;29;4356924;-91
2023/09/06 03:08:59;;;;;;;;;4.50;4.50;;;;;;;;4775139;29;9842;-91
2023/09/06 03:11:24;;;;;;;;;6.75;6.75;;;;;;;;4784830;29;8816;-92
2023/09/06 03:13:55;;;;;;;;;4.00;4.00;;;;;;;;4776353;29;8850;-92
2023/09/06 03:16:22;;;;;;;;;5.00;5.00;;;;;;;;4786230;29;8854;-91
2023/09/06 03:18:49;;;;;;;;;7.75;7.75;;;;;;;;4794077;29;8850;-92
2023/09/06 03:21:16;;;;;;;;;5.25;5.25;;;;;;;;4777212;29;8828;-92
2023/09/06 03:23:44;;;;;;;;;3.75;3.75;;;;;;;;4772545;29;8851;-92
2023/09/06 03:26:10;;;;;;;;;5.25;5.25;;;;;;;;4778878;29;8837;-92
2023/09/06 03:28:37;;;;;;;;;5.00;5.00;;;;;;;;4779783;29;8836;-92
2023/09/06 03:31:02;;;;;;;;;6.25;6.25;;;;;;;;4777193;29;8870;-92
2023/09/06 03:33:29;;;;;;;;;4.33;4.33;;;;;;;;4779311;29;8954;-92
2023/09/06 03:35:54;;;;;;;;;5.75;5.75;;;;;;;;4777603;29;8893;-91
2023/09/06 03:38:25;;;;;;;;;7.00;7.00;;;;;;;;4793314;29;8902;-92
2023/09/06 03:40:50;;;;;;;;;5.50;5.50;;;;;;;;4789803;29;8849;-92
2023/09/06 03:43:16;;;;;;;;;6.33;6.33;;;;;;;;4781486;29;8852;-92
2023/09/06 03:45:44;;;;;;;;;5.00;5.00;;;;;;;;4788799;29;8856;-92
2023/09/06 03:48:09;;;;;;;;;4.00;4.00;;;;;;;;4783717;29;8824;-92
2023/09/06 03:50:34;;;;;;;;;4.67;4.67;;;;;;;;4774651;29;8864;-91
2023/09/06 03:52:59;;;;;;;;;4.33;4.33;;;;;;;;4789166;29;8843;-91
2023/09/06 03:55:25;;;;;;;;;5.33;5.33;;;;;;;;4789331;29;8837;-91
2023/09/06 03:57:52;;;;;;;;;5.67;5.67;;;;;;;;4787863;29;8862;-92
2023/09/06 04:00:24;;;;;;;;;6.75;6.75;;;;;;;;4789964;29;8930;-92
2023/09/06 04:02:55;;;;;;;;;7.00;7.00;;;;;;;;4339764;30;13208731;-91
2023/09/06 04:05:25;;;;;;;;;4.25;4.25;;;;;;;;4784898;29;8824;-92
2023/09/06 04:07:57;;;;;;;;;5.00;5.00;;;;;;;;4774696;29;8867;-92
2023/09/06 04:10:35;;;;;;;;;5.50;5.50;;;;;;;;4785233;29;8822;-91
2023/09/06 04:13:01;;;;;;;;;4.50;4.50;;;;;;;;4792444;29;8935;-92
2023/09/06 04:15:26;;;;;;;;;5.00;5.00;;;;;;;;4787323;29;8837;-92
2023/09/06 04:17:57;;;;;;;;;5.33;5.33;;;;;;;;4801604;29;8855;-92
2023/09/06 04:20:23;;;;;;;;;5.75;5.75;;;;;;;;4781600;29;8841;-92
2023/09/06 04:22:48;;;;;;;;;5.75;5.75;;;;;;;;4780930;29;8966;-92
2023/09/06 04:25:18;;;;;;;;;6.67;6.67;;;;;;;;4790882;29;8869;-92
2023/09/06 04:27:46;;;;;;;;;5.00;5.00;;;;;;;;4779435;29;8847;-92
2023/09/06 04:30:13;;;;;;;;;6.00;6.00;;;;;;;;4774488;30;9051;-92
2023/09/06 04:32:38;;;;;;;;;6.25;6.25;;;;;;;;4784257;29;8812;-92
2023/09/06 04:35:04;;;;;;;;;5.67;5.67;;;;;;;;4781658;29;8881;-92
2023/09/06 04:37:29;;;;;;;;;5.67;5.67;;;;;;;;4779060;29;8848;-92
2023/09/06 04:39:54;;;;;;;;;6.33;6.33;;;;;;;;4791252;29;9926;-92
2023/09/06 04:42:20;;;;;;;;;6.33;6.33;;;;;;;;4792141;29;8892;-91
2023/09/06 04:44:45;;;;;;;;;8.00;6.67;;;;;;;;4781927;29;8848;-92
2023/09/06 04:47:17;;;;;;;;;4.67;4.67;;;;;;;;4775889;29;8948;-92
2023/09/06 04:49:45;;;;;;;;;5.50;5.50;;;;;;;;4781185;29;8775;-92
2023/09/06 04:52:11;;;;;;;;;6.00;6.00;;;;;;;;4788689;29;8826;-92
2023/09/06 04:54:36;;;;;;;;;3.67;3.67;;;;;;;;4789851;29;8864;-92
2023/09/06 04:57:04;;;;;;;;;7.67;7.67;;;;;;;;4784807;29;9012;-92
2023/09/06 04:59:33;;;;;;;;;3.00;3.00;;;;;;;;4783774;29;8921;-92
2023/09/06 05:01:58;;;;;;;;;6.25;6.25;;;;;;;;4784839;29;8820;-92
2023/09/06 05:04:23;;;;;;;;;6.33;6.33;;;;;;;;4775407;29;8885;-92
2023/09/06 05:06:49;;;;;;;;;5.67;5.67;;;;;;;;4785102;29;8835;-92
2023/09/06 05:09:15;;;;;;;;;6.67;6.67;;;;;;;;4779668;29;8834;-92
2023/09/06 05:11:41;;;;;;;;;4.00;4.00;;;;;;;;4779069;29;8931;-91
2023/09/06 05:14:06;;;;;;;;;5.00;5.00;;;;;;;;4787893;29;8854;-91
2023/09/06 05:16:31;;;;;;;;;5.00;5.00;;;;;;;;4783713;29;8877;-92
2023/09/06 05:18:57;;;;;;;;;4.00;4.00;;;;;;;;4795913;29;8830;-92
2023/09/06 05:21:22;;;;;;;;;6.00;6.00;;;;;;;;4776598;29;8843;-92
2023/09/06 05:23:47;;;;;;;;;5.00;5.00;;;;;;;;4774897;29;8849;-91
2023/09/06 05:26:12;;;;;;;;;9.00;6.33;;;;;;;;4789134;29;8984;-92
2023/09/06 05:28:38;;;;;;;;;7.00;7.00;;;;;;;;4788447;29;9366;-92
2023/09/06 05:31:03;;;;;;;;;6.00;6.00;;;;;;;;4782862;29;8833;-92
2023/09/06 05:33:28;;;;;;;;;5.00;5.00;;;;;;;;4772139;29;8900;-91
2023/09/06 05:35:54;;;;;;;;;6.00;6.00;;;;;;;;4774292;29;8855;-91
2023/09/06 05:38:19;;;;;;;;;6.67;6.67;;;;;;;;4773644;30;8851;-92
2023/09/06 05:40:45;;;;;;;;;6.67;6.67;;;;;;;;4775845;29;8917;-92
2023/09/06 05:43:10;;;;;;;;;5.00;5.00;;;;;;;;4772200;30;8899;-92
2023/09/06 05:45:38;;;;;;;;;4.67;4.67;;;;;;;;4787038;29;8822;-92
2023/09/06 05:48:03;;;;;;;;;4.75;4.75;;;;;;;;4781619;29;8837;-92
2023/09/06 05:50:31;;;;;;;;;6.00;6.00;;;;;;;;4783663;29;8880;-91
2023/09/06 05:52:56;;;;;;;;;5.50;5.50;;;;;;;;4785524;29;8864;-92
2023/09/06 05:55:24;;;;;;;;;3.67;3.67;;;;;;;;4786797;29;8830;-92
2023/09/06 05:57:53;;;;;;;;;6.00;6.00;;;;;;;;4775028;29;8828;-92
2023/09/06 06:00:28;;;;;;;;;;;;;;;;;;;;;
2023/09/06 06:02:58;;;;;;;;;4.75;4.75;;;;;;;;4786081;29;35735;-92
2023/09/06 06:05:24;;;;;;;;;4.00;4.00;;;;;;;;4791235;29;8873;-92
2023/09/06 06:07:49;;;;;;;;;4.33;4.33;;;;;;;;4785554;29;8983;-92
2023/09/06 06:10:14;;;;;;;;;5.00;5.00;;;;;;;;4783305;29;8832;-92
2023/09/06 06:12:41;;;;;;;;;4.33;4.33;;;;;;;;4784399;29;8937;-92
2023/09/06 06:15:08;;;;;;;;;5.00;5.00;;;;;;;;4789748;29;8857;-92
2023/09/06 06:17:33;;;;;;;;;4.00;4.00;;;;;;;;4775580;29;8852;-92
2023/09/06 06:19:59;;;;;;;;;6.00;6.00;;;;;;;;4783152;29;8889;-92
2023/09/06 06:22:24;;;;;;;;;7.00;4.00;;;;;;;;4784485;29;9572;-92
2023/09/06 06:24:50;;;;;;;;;5.00;5.00;;;;;;;;4771187;30;8977;-92
2023/09/06 06:27:15;;;;;;;;;5.00;5.00;;;;;;;;4769592;30;28314;-92
2023/09/06 06:29:41;;;;;;;;;4.00;4.00;;;;;;;;4771475;30;11359;-92
2023/09/06 06:32:07;;;;;;;;;3.00;3.00;;;;;;;;4777825;29;8846;-92
2023/09/06 06:34:32;;;;;;;;;5.00;5.00;;;;;;;;4789506;29;8834;-92
2023/09/06 06:36:57;;;;;;;;;2.33;2.33;;;;;;;;4793810;29;8852;-92
2023/09/06 06:39:22;;;;;;;;;4.33;4.33;;;;;;;;4787948;29;8880;-92
2023/09/06 06:41:48;;;;;;;;;4.00;4.00;;;;;;;;4785155;29;8865;-91
2023/09/06 06:44:13;;;;;;;;;6.00;6.00;;;;;;;;4779933;29;8872;-90
2023/09/06 06:46:39;;;;;;;;;4.67;4.67;;;;;;;;4778399;29;8860;-94
2023/09/06 06:49:07;;;;;;;;;4.33;4.33;;;;;;;;4779597;29;8846;-94
2023/09/06 06:51:39;;;;;;;;;5.00;5.00;;;;;;;;4781989;29;8794;-94
2023/09/06 06:54:05;;;;;;;;;3.25;3.25;;;;;;;;4779655;29;8942;-94
2023/09/06 06:56:31;;;;;;;;;4.50;4.50;;;;;;;;4789188;29;8951;-95
2023/09/06 06:58:57;;;;;;;;;4.50;4.50;;;;;;;;4792561;29;9787;-94
2023/09/06 07:01:24;;;;;;;;;3.67;3.67;;;;;;;;4782311;29;8867;-92
2023/09/06 07:03:49;;;;;;;;;4.25;4.25;;;;;;;;4780388;29;8843;-91
2023/09/06 07:06:14;;;;;;;;;3.00;3.00;;;;;;;;4777345;29;8848;-91
2023/09/06 07:08:42;;;;;;;;;4.33;4.33;;;;;;;;4784427;29;8848;-90
2023/09/06 18:40:58;;;;;;;;;4.00;4.00;;;;;;;;4819969;24;8846;-95
2023/09/06 18:44:12;;;;;;;;;;;;;;;;;;;;;
2023/09/06 19:07:24;;;;;;;;;6.75;6.75;;;;;;;;5404336;24;8945;-89
2023/09/06 19:10:02;;;;;;;;;;;;;;;;;;;;;
2023/09/06 19:13:01;;;;;;;;;;;;;;;;;;;;;
2023/09/06 19:15:34;;;;;;;;;7.50;7.50;;;;;;;;4778161;29;35529;-89
2023/09/06 19:21:04;;;;;;;;;;;;;;;;;;;;;
2023/09/06 19:26:54;;;;;;;;;7.25;7.25;;;;;;;;4774569;29;8856;-89
2023/09/06 19:29:44;;;;;;;;;4.25;4.25;;;;;;;;4760081;29;8824;-89
2023/09/06 19:32:10;;;;;;;;;6.50;6.50;;;;;;;;4779045;29;9134;-88
2023/09/06 19:34:45;;;;;;;;;8.00;8.00;;;;;;;;4777096;29;8882;-89
2023/09/06 19:40:52;;;;;;;;;;;;;;;;;;;;;
2023/09/06 19:43:38;;;;;;;;;6.00;6.00;;;;;;;;4785062;29;36463;-88
2023/09/06 19:46:05;;;;;;;;;8.75;8.25;;;;;;;;4766245;29;8869;-88
2023/09/06 19:48:49;;;;;;;;;6.75;6.75;;;;;;;;4776456;29;8846;-89
2023/09/06 19:51:44;;;;;;;;;;;;;;;;;;;;;
2023/09/06 19:57:07;;;;;;;;;8.25;8.25;;;;;;;;4791636;29;8841;-88
2023/09/06 20:00:04;;;;;;;;;11.00;11.00;;;;;;;;4787293;29;8791;-88
2023/09/06 20:02:42;;;;;;;;;;;;;;;;;;;;;
2023/09/06 20:05:10;;;;;;;;;6.50;6.50;;;;;;;;4789542;29;35563;-88
2023/09/06 20:08:09;;;;;;;;;;;;;;;;;;;;;
2023/09/06 20:10:45;;;;;;;;;6.25;6.25;;;;;;;;4787877;29;8965;-89
2023/09/06 20:13:30;;;;;;;;;6.25;6.25;;;;;;;;4768943;29;9860;-88
2023/09/06 20:16:03;;;;;;;;;10.50;9.25;;;;;;;;4762116;29;8885;-89
2023/09/06 20:18:32;;;;;;;;;8.00;8.00;;;;;;;;4739657;29;8840;-88
2023/09/06 20:21:06;;;;;;;;;7.00;7.00;;;;;;;;4770771;29;8823;-88
2023/09/06 20:24:07;;;;;;;;;;;;;;;;;;;;;
2023/09/06 20:27:09;;;;;;;;;;;;;;;;;;;;;
2023/09/06 20:29:52;;;;;;;;;5.50;5.50;;;;;;;;4794011;24;36636;-88
2023/09/06 20:32:20;;;;;;;;;7.75;7.75;;;;;;;;4772243;29;8907;-88
2023/09/06 20:34:48;;;;;;;;;5.75;5.75;;;;;;;;4770365;29;8861;-88
2023/09/06 20:40:31;;;;;;;;;4.00;4.00;;;;;;;;4717138;30;8771;-88
2023/09/06 20:43:27;;;;;;;;;7.33;7.33;;;;;;;;4770422;30;8978;-88
2023/09/06 20:46:03;;;;;;;;;7.00;7.00;;;;;;;;4762707;30;8852;-88
2023/09/06 20:48:40;;;;;;;;;6.25;6.25;;;;;;;;4748580;30;9161;-88
2023/09/06 20:51:08;;;;;;;;;8.00;8.00;;;;;;;;4750177;30;8796;-88
2023/09/06 20:53:36;;;;;;;;;8.25;8.25;;;;;;;;4756334;30;8909;-88
2023/09/06 20:56:14;;;;;;;;;;;;;;;;;;;;;
2023/09/06 21:03:52;;;;;;;;;6.25;6.25;;;;;;;;1179234;27;8853;-88
2023/09/06 21:06:17;;;;;;;;;7.25;7.25;;;;;;;;4789443;29;8849;-88
2023/09/06 21:08:45;;;;;;;;;5.00;5.00;;;;;;;;4793401;29;8856;-88
2023/09/06 21:11:15;;;;;;;;;7.00;7.00;;;;;;;;4779445;29;8784;-88
2023/09/06 21:13:41;;;;;;;;;6.00;6.00;;;;;;;;4775753;29;9776;-88
2023/09/06 21:16:06;;;;;;;;;8.67;8.67;;;;;;;;4774583;29;8972;-88
2023/09/06 21:18:42;;;;;;;;;6.67;6.67;;;;;;;;4797351;29;8857;-88
2023/09/06 21:21:09;;;;;;;;;9.00;7.00;;;;;;;;4771235;29;8931;-88
2023/09/06 21:23:36;;;;;;;;;8.00;8.00;;;;;;;;4779142;29;8832;-88
2023/09/06 21:26:07;;;;;;;;;8.25;8.25;;;;;;;;4767811;29;8842;-88
2023/09/06 21:28:35;;;;;;;;;9.33;9.33;;;;;;;;3291994;29;45126262;-88
2023/09/06 21:31:22;;;;;;;;;10.25;10.25;;;;;;;;4781877;29;11623;-91
2023/09/06 21:33:49;;;;;;;;;6.00;6.00;;;;;;;;4773179;29;8857;-88
2023/09/06 21:36:19;;;;;;;;;7.25;7.25;;;;;;;;4767280;29;8829;-88
2023/09/06 21:38:48;;;;;;;;;6.50;6.50;;;;;;;;4775528;29;8860;-88
2023/09/06 21:41:16;;;;;;;;;8.00;8.00;;;;;;;;4765687;29;9021;-88
2023/09/06 21:43:48;;;;;;;;;7.25;7.25;;;;;;;;4756634;29;9100;-88
2023/09/06 21:46:23;;;;;;;;;5.25;5.25;;;;;;;;4799434;29;8827;-88
2023/09/06 21:48:53;;;;;;;;;5.25;5.25;;;;;;;;4792936;29;9291;-88
2023/09/06 21:51:18;;;;;;;;;8.00;7.25;;;;;;;;4777407;29;8823;-88
2023/09/06 21:53:44;;;;;;;;;7.67;7.67;;;;;;;;4790541;29;8857;-88
2023/09/06 21:56:11;;;;;;;;;6.33;6.33;;;;;;;;4769255;29;8865;-88
2023/09/06 21:58:38;;;;;;;;;7.75;7.75;;;;;;;;4788476;29;8856;-88
2023/09/06 22:01:15;;;;;;;;;5.50;5.50;;;;;;;;4791226;29;8834;-88
2023/09/06 22:03:40;;;;;;;;;6.25;6.25;;;;;;;;4774459;29;8852;-88
2023/09/06 22:06:08;;;;;;;;;5.33;5.33;;;;;;;;4800329;29;8856;-88
2023/09/06 22:08:35;;;;;;;;;6.50;6.50;;;;;;;;4809290;29;9857;-88
2023/09/06 22:11:00;;;;;;;;;7.25;7.25;;;;;;;;4787423;29;9182;-88
2023/09/06 22:13:26;;;;;;;;;6.00;6.00;;;;;;;;4791155;29;8834;-88
2023/09/06 22:15:56;;;;;;;;;7.67;7.67;;;;;;;;4788374;29;8955;-88
2023/09/06 22:18:23;;;;;;;;;6.75;6.75;;;;;;;;4789568;29;8834;-88
2023/09/06 22:20:49;;;;;;;;;4.25;4.25;;;;;;;;4788433;29;8842;-88
2023/09/06 22:23:16;;;;;;;;;5.67;5.67;;;;;;;;4774664;29;8849;-88
2023/09/06 22:25:42;;;;;;;;;6.00;6.00;;;;;;;;4799634;29;8828;-88
2023/09/06 22:28:08;;;;;;;;;6.00;6.00;;;;;;;;4770324;29;8868;-88
2023/09/06 22:30:34;;;;;;;;;5.00;5.00;;;;;;;;4768062;29;8952;-88
2023/09/06 22:32:59;;;;;;;;;5.33;5.33;;;;;;;;4773865;29;8838;-88
2023/09/06 22:35:25;;;;;;;;;5.67;5.67;;;;;;;;4787473;29;8822;-88
2023/09/06 22:37:51;;;;;;;;;8.00;8.00;;;;;;;;4779096;29;8874;-88
2023/09/06 22:40:16;;;;;;;;;7.75;7.75;;;;;;;;4787295;29;8808;-87
2023/09/06 22:42:42;;;;;;;;;6.00;6.00;;;;;;;;4773143;29;8857;-88
2023/09/06 22:45:09;;;;;;;;;6.33;6.33;;;;;;;;4770385;30;9581;-88
2023/09/06 22:47:37;;;;;;;;;4.50;4.50;;;;;;;;4797590;29;8848;-88
2023/09/06 22:50:02;;;;;;;;;7.50;7.50;;;;;;;;4765757;29;8836;-87
2023/09/06 22:52:28;;;;;;;;;5.67;5.67;;;;;;;;4790828;29;9582;-87
2023/09/06 22:54:53;;;;;;;;;7.00;7.00;;;;;;;;3857119;29;17861206;-88
2023/09/06 22:57:21;;;;;;;;;5.00;5.00;;;;;;;;4780610;29;8808;-88
2023/09/06 22:59:46;;;;;;;;;6.67;6.67;;;;;;;;3929303;29;26443131;-88
2023/09/06 23:02:11;;;;;;;;;8.67;8.67;;;;;;;;4799516;29;8831;-87
2023/09/06 23:04:38;;;;;;;;;6.00;6.00;;;;;;;;4789994;29;8923;-88
2023/09/06 23:07:04;;;;;;;;;5.25;5.25;;;;;;;;4769878;29;8853;-87
2023/09/06 23:09:29;;;;;;;;;8.00;8.00;;;;;;;;4505003;29;8132846;-87
2023/09/06 23:11:55;;;;;;;;;8.00;8.00;;;;;;;;4629342;29;4356931;-88
2023/09/06 23:14:21;;;;;;;;;8.00;8.00;;;;;;;;4771536;29;8837;-88
2023/09/06 23:17:12;;;;;;;;;7.00;7.00;;;;;;;;4314581;30;37306059;-88
2023/09/06 23:19:55;;;;;;;;;8.00;8.00;;;;;;;;1190879;30;82129037;-87
2023/09/06 23:22:23;;;;;;;;;7.00;7.00;;;;;;;;4474051;29;9069695;-88
2023/09/06 23:24:51;;;;;;;;;9.33;9.33;;;;;;;;4624373;30;4357753;-88
2023/09/06 23:27:23;;;;;;;;;7.75;7.75;;;;;;;;4771285;29;8904;-88
2023/09/06 23:29:52;;;;;;;;;9.75;8.25;;;;;;;;4779019;29;8816;-88
2023/09/06 23:32:19;;;;;;;;;6.75;6.75;;;;;;;;4763791;29;8762;-88
2023/09/06 23:34:50;;;;;;;;;8.00;8.00;;;;;;;;4780422;29;8880;-88
2023/09/06 23:37:16;;;;;;;;;8.50;8.50;;;;;;;;4771897;29;8864;-88
2023/09/06 23:40:23;;;;;;;;;;;;;;;;;;823074;30;83438014;-88
2023/09/06 23:42:58;;;;;;;;;8.50;8.50;;;;;;;;1885581;30;77047362;-88
2023/09/06 23:45:25;;;;;;;;;7.00;7.00;;;;;;;;4776980;29;13597;-88
2023/09/06 23:48:01;;;;;;;;;6.00;6.00;;;;;;;;4439149;29;10359143;-88
2023/09/06 23:50:28;;;;;;;;;8.67;8.67;;;;;;;;4381374;29;7358556;-88
2023/09/06 23:53:57;;;;;;;;;;;;;;;;;;1163077;30;170453339;-88
2023/09/06 23:58:17;;;;;;;;;9.00;9.00;;;;;;;;2525254;29;123053339;-88
